createdAt,value
2017-10-26T00:02:08.420Z,99.90
2017-10-26T00:04:36.118Z,99.90
2017-10-26T00:07:03.728Z,99.90
2017-10-26T00:09:31.358Z,99.90
2017-10-26T00:11:58.969Z,99.90
2017-10-26T00:14:26.568Z,99.90
2017-10-26T00:16:54.217Z,99.90
2017-10-26T00:19:21.845Z,99.90
2017-10-26T00:21:49.439Z,99.90
2017-10-26T00:24:17.036Z,99.90
2017-10-26T00:26:44.659Z,99.90
2017-10-26T00:29:12.280Z,99.90
2017-10-26T00:31:40.668Z,99.90
2017-10-26T00:34:08.284Z,99.90
2017-10-26T00:36:35.865Z,99.90
2017-10-26T00:39:04.023Z,99.90
2017-10-26T00:41:31.598Z,99.90
2017-10-26T00:43:59.969Z,99.90
2017-10-26T00:46:27.583Z,99.90
2017-10-26T00:48:55.220Z,99.90
2017-10-26T00:51:22.824Z,99.90
2017-10-26T00:53:50.433Z,99.90
2017-10-26T00:56:18.036Z,99.90
2017-10-26T00:58:45.658Z,99.90
2017-10-26T01:01:13.299Z,99.90
2017-10-26T01:03:40.933Z,99.90
2017-10-26T01:06:09.423Z,99.90
2017-10-26T01:08:37.028Z,99.90
2017-10-26T01:11:05.379Z,99.90
2017-10-26T01:13:32.976Z,99.90
2017-10-26T01:16:00.875Z,99.90
2017-10-26T01:18:28.471Z,99.90
2017-10-26T01:20:56.078Z,99.90
2017-10-26T01:23:24.478Z,99.90
2017-10-26T01:25:52.039Z,99.90
2017-10-26T01:28:19.631Z,99.90
2017-10-26T01:30:47.269Z,99.90
2017-10-26T01:33:14.872Z,99.90
2017-10-26T01:35:42.519Z,99.90
2017-10-26T01:38:10.155Z,99.90
2017-10-26T01:40:37.810Z,99.90
2017-10-26T01:43:05.472Z,99.90
2017-10-26T01:45:33.073Z,99.90
2017-10-26T01:48:00.722Z,99.90
2017-10-26T01:50:28.288Z,99.90
2017-10-26T01:52:55.946Z,99.90
2017-10-26T01:55:24.344Z,99.90
2017-10-26T01:57:52.072Z,99.90
2017-10-26T02:00:19.687Z,99.90
2017-10-26T02:02:47.315Z,99.90
2017-10-26T02:05:14.955Z,99.90
2017-10-26T02:07:42.540Z,99.90
2017-10-26T02:10:10.135Z,99.90
2017-10-26T02:12:37.726Z,99.90
2017-10-26T02:15:05.565Z,99.90
2017-10-26T02:17:33.166Z,99.90
2017-10-26T02:20:01.537Z,99.90
2017-10-26T02:22:29.166Z,99.90
2017-10-26T02:24:56.754Z,99.90
2017-10-26T02:27:25.906Z,99.90
2017-10-26T02:30:05.225Z,99.90
2017-10-26T02:32:32.844Z,99.90
2017-10-26T02:35:02.185Z,99.90
2017-10-26T02:37:29.899Z,99.90
2017-10-26T02:39:58.301Z,99.90
2017-10-26T02:42:25.981Z,99.90
2017-10-26T02:44:53.956Z,99.90
2017-10-26T02:47:21.568Z,99.90
2017-10-26T02:49:49.178Z,99.90
2017-10-26T02:52:16.777Z,99.90
2017-10-26T02:54:44.447Z,99.90
2017-10-26T02:57:12.592Z,99.90
2017-10-26T02:59:40.241Z,99.90
2017-10-26T03:02:07.866Z,99.90
2017-10-26T03:04:36.230Z,99.90
2017-10-26T03:07:03.887Z,99.90
2017-10-26T03:09:31.480Z,99.90
2017-10-26T03:11:59.847Z,99.90
2017-10-26T03:14:28.254Z,99.90
2017-10-26T03:16:55.861Z,99.90
2017-10-26T03:19:23.498Z,99.90
2017-10-26T03:21:51.327Z,99.90
2017-10-26T03:24:18.907Z,99.90
2017-10-26T03:26:47.382Z,99.90
2017-10-26T03:29:14.996Z,99.90
2017-10-26T03:31:42.608Z,99.90
2017-10-26T03:34:11.136Z,99.90
2017-10-26T03:36:38.733Z,99.90
2017-10-26T03:39:06.436Z,99.90
2017-10-26T03:41:34.063Z,99.90
2017-10-26T03:44:01.721Z,99.90
2017-10-26T03:46:29.386Z,99.90
2017-10-26T03:48:57.018Z,99.90
2017-10-26T03:51:24.615Z,99.90
2017-10-26T03:53:52.216Z,99.90
2017-10-26T03:56:20.608Z,99.90
2017-10-26T03:58:49.152Z,99.90
2017-10-26T04:01:16.738Z,99.90
2017-10-26T04:03:44.372Z,99.90
2017-10-26T04:06:11.963Z,99.90
2017-10-26T04:08:41.161Z,99.90
2017-10-26T04:11:09.897Z,99.90
2017-10-26T04:13:37.469Z,99.90
2017-10-26T04:16:05.081Z,99.90
2017-10-26T04:18:32.726Z,99.90
2017-10-26T04:21:01.145Z,99.90
2017-10-26T04:23:28.939Z,99.90
2017-10-26T04:25:56.575Z,99.90
2017-10-26T04:28:24.226Z,99.90
2017-10-26T04:30:51.908Z,99.90
2017-10-26T04:33:19.554Z,99.90
2017-10-26T04:35:47.213Z,99.90
2017-10-26T04:38:14.849Z,99.90
2017-10-26T04:40:43.270Z,99.90
2017-10-26T04:43:11.627Z,99.90
2017-10-26T04:45:39.981Z,99.90
2017-10-26T04:48:08.325Z,99.90
2017-10-26T04:50:35.893Z,99.90
2017-10-26T04:53:03.499Z,99.90
2017-10-26T04:55:31.119Z,99.90
2017-10-26T04:57:58.746Z,99.90
2017-10-26T05:00:26.353Z,99.90
2017-10-26T05:02:53.990Z,99.90
2017-10-26T05:05:21.588Z,99.90
2017-10-26T05:07:49.196Z,99.90
2017-10-26T05:10:16.816Z,99.90
2017-10-26T05:12:44.409Z,99.90
2017-10-26T05:15:11.992Z,99.90
2017-10-26T05:17:39.608Z,99.90
2017-10-26T05:20:07.190Z,99.90
2017-10-26T05:22:34.813Z,99.90
2017-10-26T05:25:02.448Z,99.90
2017-10-26T05:27:30.815Z,99.90
2017-10-26T05:29:58.412Z,99.90
2017-10-26T05:32:26.032Z,99.90
2017-10-26T05:34:53.675Z,99.90
2017-10-26T05:37:21.263Z,99.90
2017-10-26T05:39:48.917Z,99.90
2017-10-26T05:42:16.496Z,99.90
2017-10-26T05:44:44.890Z,99.90
2017-10-26T05:47:12.812Z,99.90
2017-10-26T05:49:40.432Z,99.90
2017-10-26T05:52:08.046Z,99.90
2017-10-26T05:54:35.659Z,99.90
2017-10-26T05:57:04.130Z,99.90
2017-10-26T05:59:31.759Z,99.90
2017-10-26T06:01:59.334Z,99.90
2017-10-26T06:04:27.713Z,99.90
2017-10-26T06:06:56.140Z,99.90
2017-10-26T06:09:23.738Z,99.90
2017-10-26T06:11:52.112Z,99.90
2017-10-26T06:14:19.736Z,99.90
2017-10-26T06:16:47.321Z,99.90
2017-10-26T06:19:15.713Z,99.90
2017-10-26T06:21:43.349Z,99.90
2017-10-26T06:24:11.702Z,99.90
2017-10-26T06:26:39.331Z,99.90
2017-10-26T06:29:07.700Z,99.90
2017-10-26T06:31:35.316Z,99.90
2017-10-26T06:34:02.948Z,99.90
2017-10-26T06:36:30.581Z,99.90
2017-10-26T06:38:58.938Z,99.90
2017-10-26T06:41:26.568Z,99.90
2017-10-26T06:43:54.200Z,99.90
2017-10-26T06:46:21.849Z,99.90
2017-10-26T06:48:50.229Z,99.90
2017-10-26T06:51:19.553Z,99.90
2017-10-26T06:53:47.186Z,99.90
2017-10-26T06:56:14.822Z,99.90
2017-10-26T06:58:42.454Z,99.90
2017-10-26T07:01:10.734Z,99.90
2017-10-26T07:03:39.254Z,99.80
2017-10-26T07:06:06.893Z,99.80
2017-10-26T07:08:34.484Z,99.90
2017-10-26T07:11:02.096Z,99.80
2017-10-26T07:13:29.751Z,99.80
2017-10-26T07:15:57.384Z,99.90
2017-10-26T07:18:25.781Z,99.90
2017-10-26T07:20:54.134Z,99.90
2017-10-26T07:23:21.725Z,99.90
2017-10-26T07:25:49.367Z,99.90
2017-10-26T07:28:17.719Z,99.80
2017-10-26T07:30:46.439Z,99.80
2017-10-26T07:33:14.817Z,99.70
2017-10-26T07:35:43.325Z,99.50
2017-10-26T07:38:10.922Z,99.50
2017-10-26T07:40:38.516Z,99.50
2017-10-26T07:43:06.176Z,99.30
2017-10-26T07:45:34.550Z,99.10
2017-10-26T07:48:02.176Z,99.10
2017-10-26T07:50:30.616Z,98.80
2017-10-26T07:52:59.020Z,98.80
2017-10-26T07:55:26.641Z,98.80
2017-10-26T07:57:55.015Z,98.50
2017-10-26T08:00:22.657Z,98.50
2017-10-26T08:02:50.276Z,98.50
2017-10-26T08:05:17.918Z,98.50
2017-10-26T08:07:45.512Z,98.50
2017-10-26T08:10:13.175Z,98.50
2017-10-26T08:12:40.779Z,98.60
2017-10-26T08:15:08.389Z,98.50
2017-10-26T08:17:35.976Z,98.40
2017-10-26T08:20:03.581Z,98.30
2017-10-26T08:22:32.007Z,98.50
2017-10-26T08:24:59.585Z,98.50
2017-10-26T08:27:27.208Z,98.20
2017-10-26T08:29:54.872Z,98.30
2017-10-26T08:32:22.455Z,98.10
2017-10-26T08:34:50.047Z,98.30
2017-10-26T08:37:18.383Z,98.20
2017-10-26T08:39:46.969Z,98.10
2017-10-26T08:42:14.585Z,97.80
2017-10-26T08:44:42.978Z,97.60
2017-10-26T08:47:10.545Z,97.50
2017-10-26T08:49:38.153Z,97.50
2017-10-26T08:52:06.735Z,97.50
2017-10-26T08:54:34.385Z,97.90
2017-10-26T08:57:02.014Z,98.00
2017-10-26T08:59:29.606Z,98.00
2017-10-26T09:01:58.094Z,97.40
2017-10-26T09:04:26.567Z,97.30
2017-10-26T09:06:54.273Z,97.30
2017-10-26T09:09:21.890Z,97.60
2017-10-26T09:11:49.488Z,97.70
2017-10-26T09:14:17.905Z,97.60
2017-10-26T09:16:45.537Z,97.50
2017-10-26T09:19:14.016Z,97.70
2017-10-26T09:21:43.304Z,97.90
2017-10-26T09:24:11.694Z,98.00
2017-10-26T09:26:40.092Z,97.80
2017-10-26T09:29:07.657Z,97.80
2017-10-26T09:31:35.337Z,98.10
2017-10-26T09:34:03.088Z,98.10
2017-10-26T09:36:30.776Z,98.20
2017-10-26T09:38:58.429Z,98.10
2017-10-26T09:41:26.053Z,97.90
2017-10-26T09:43:54.408Z,97.30
2017-10-26T09:46:21.991Z,97.30
2017-10-26T09:48:50.369Z,97.40
2017-10-26T09:51:18.707Z,97.20
2017-10-26T09:53:46.386Z,97.20
2017-10-26T09:56:13.967Z,96.60
2017-10-26T09:58:42.347Z,96.20
2017-10-26T10:01:11.654Z,95.90
2017-10-26T10:03:40.007Z,96.30
2017-10-26T10:06:07.645Z,96.30
2017-10-26T10:08:35.230Z,96.30
2017-10-26T10:11:02.863Z,96.30
2017-10-26T10:13:30.485Z,96.40
2017-10-26T10:15:58.090Z,96.20
2017-10-26T10:18:25.648Z,96.30
2017-10-26T10:20:53.283Z,96.40
2017-10-26T10:23:20.866Z,96.00
2017-10-26T10:25:49.262Z,96.00
2017-10-26T10:28:16.837Z,95.90
2017-10-26T10:30:44.549Z,96.00
2017-10-26T10:33:12.161Z,95.90
2017-10-26T10:35:39.798Z,95.80
2017-10-26T10:38:08.245Z,95.50
2017-10-26T10:40:35.899Z,95.50
2017-10-26T10:43:04.392Z,95.40
2017-10-26T10:45:32.019Z,95.40
2017-10-26T10:48:00.456Z,95.20
2017-10-26T10:50:28.087Z,95.10
2017-10-26T10:52:55.730Z,95.00
2017-10-26T10:55:23.354Z,95.40
2017-10-26T10:57:51.026Z,94.80
2017-10-26T11:00:24.263Z,94.40
2017-10-26T11:02:51.884Z,94.60
2017-10-26T11:05:21.124Z,93.80
2017-10-26T11:07:48.777Z,93.80
2017-10-26T11:10:16.405Z,93.80
2017-10-26T11:12:44.093Z,93.80
2017-10-26T11:15:11.716Z,93.40
2017-10-26T11:17:40.832Z,93.20
2017-10-26T11:20:08.441Z,92.80
2017-10-26T11:22:36.101Z,92.60
2017-10-26T11:25:03.715Z,92.80
2017-10-26T11:27:32.097Z,93.00
2017-10-26T11:30:00.801Z,92.70
2017-10-26T11:32:28.373Z,92.70
2017-10-26T11:34:55.998Z,92.80
2017-10-26T11:37:23.597Z,93.00
2017-10-26T11:39:51.225Z,92.80
2017-10-26T11:42:19.578Z,92.70
2017-10-26T11:44:47.954Z,92.90
2017-10-26T11:47:15.575Z,92.90
2017-10-26T11:49:43.222Z,92.90
2017-10-26T11:52:10.849Z,92.50
2017-10-26T11:54:38.422Z,92.50
2017-10-26T11:57:06.813Z,92.30
2017-10-26T11:59:35.224Z,92.20
2017-10-26T12:02:03.442Z,92.20
2017-10-26T12:04:31.056Z,91.60
2017-10-26T12:06:58.663Z,91.40
2017-10-26T12:09:26.294Z,91.00
2017-10-26T12:11:53.918Z,91.20
2017-10-26T12:14:21.552Z,91.30
2017-10-26T12:16:49.879Z,91.10
2017-10-26T12:19:17.506Z,91.10
2017-10-26T12:21:45.860Z,90.90
2017-10-26T12:24:14.227Z,90.60
2017-10-26T12:26:41.820Z,90.60
2017-10-26T12:29:10.233Z,90.60
2017-10-26T12:31:38.696Z,90.60
2017-10-26T12:34:06.458Z,90.50
2017-10-26T12:36:39.376Z,90.40
2017-10-26T12:39:07.057Z,90.20
2017-10-26T12:41:34.972Z,90.40
2017-10-26T12:44:02.606Z,90.60
2017-10-26T12:46:30.245Z,90.40
2017-10-26T12:48:57.882Z,90.50
2017-10-26T12:51:25.510Z,90.30
2017-10-26T12:53:53.921Z,90.20
2017-10-26T12:56:21.586Z,90.20
2017-10-26T12:58:50.111Z,90.20
2017-10-26T13:01:17.773Z,90.20
2017-10-26T13:03:46.311Z,90.20
2017-10-26T13:06:13.914Z,90.20
2017-10-26T13:08:43.013Z,89.50
2017-10-26T13:11:10.902Z,89.40
2017-10-26T13:13:38.566Z,89.60
2017-10-26T13:16:06.201Z,89.60
2017-10-26T13:18:33.811Z,89.20
2017-10-26T13:21:01.479Z,89.90
2017-10-26T13:23:29.110Z,90.40
2017-10-26T13:25:56.688Z,90.60
2017-10-26T13:28:24.289Z,90.30
2017-10-26T13:30:51.917Z,90.50
2017-10-26T13:33:19.585Z,90.50
2017-10-26T13:35:47.209Z,90.40
2017-10-26T13:38:15.573Z,90.60
2017-10-26T13:40:43.243Z,90.60
2017-10-26T13:43:11.695Z,91.20
2017-10-26T13:45:39.278Z,91.20
2017-10-26T13:48:07.663Z,90.80
2017-10-26T13:50:36.025Z,90.30
2017-10-26T13:53:04.385Z,90.20
2017-10-26T13:55:32.888Z,90.50
2017-10-26T13:58:00.492Z,90.50
2017-10-26T14:00:28.124Z,90.70
2017-10-26T14:02:55.734Z,90.00
2017-10-26T14:05:23.353Z,89.90
2017-10-26T14:07:51.716Z,89.20
2017-10-26T14:10:19.321Z,89.00
2017-10-26T14:12:46.910Z,89.20
2017-10-26T14:15:14.520Z,89.90
2017-10-26T14:17:42.115Z,89.70
2017-10-26T14:20:09.802Z,88.30
2017-10-26T14:22:37.403Z,88.10
2017-10-26T14:25:05.753Z,87.00
2017-10-26T14:27:33.306Z,87.00
2017-10-26T14:30:01.818Z,87.30
2017-10-26T14:32:31.066Z,87.10
2017-10-26T14:34:58.699Z,87.10
2017-10-26T14:37:26.331Z,86.80
2017-10-26T14:39:54.016Z,87.50
2017-10-26T14:42:21.625Z,88.30
2017-10-26T14:44:50.740Z,88.30
2017-10-26T14:47:19.192Z,89.00
2017-10-26T14:49:47.014Z,89.80
2017-10-26T14:52:14.652Z,88.90
2017-10-26T14:54:43.029Z,89.10
2017-10-26T14:57:11.432Z,89.10
2017-10-26T14:59:39.054Z,89.10
2017-10-26T15:02:06.960Z,88.90
2017-10-26T15:04:35.420Z,88.90
2017-10-26T15:07:03.812Z,87.90
2017-10-26T15:09:31.412Z,87.90
2017-10-26T15:11:58.995Z,87.30
2017-10-26T15:14:26.639Z,87.70
2017-10-26T15:16:54.244Z,87.50
2017-10-26T15:19:22.610Z,87.70
2017-10-26T15:21:50.258Z,87.60
2017-10-26T15:24:20.445Z,87.30
2017-10-26T15:26:48.110Z,87.70
2017-10-26T15:29:15.703Z,87.70
2017-10-26T15:31:43.314Z,88.50
2017-10-26T15:34:11.069Z,88.60
2017-10-26T15:36:38.654Z,88.50
2017-10-26T15:39:06.348Z,89.30
2017-10-26T15:41:34.035Z,89.60
2017-10-26T15:44:02.438Z,90.00
2017-10-26T15:46:30.119Z,90.00
2017-10-26T15:48:57.767Z,90.10
2017-10-26T15:51:25.908Z,90.20
2017-10-26T15:53:53.498Z,90.30
2017-10-26T15:56:21.114Z,90.30
2017-10-26T15:58:48.760Z,90.30
2017-10-26T16:01:16.341Z,90.50
2017-10-26T16:03:44.708Z,90.80
2017-10-26T16:06:12.297Z,90.80
2017-10-26T16:08:40.692Z,91.10
2017-10-26T16:11:08.496Z,91.10
2017-10-26T16:13:36.133Z,91.30
2017-10-26T16:16:03.928Z,91.30
2017-10-26T16:18:31.637Z,91.60
2017-10-26T16:20:59.998Z,91.80
2017-10-26T16:23:27.576Z,91.80
2017-10-26T16:25:55.913Z,92.00
2017-10-26T16:28:23.479Z,92.00
2017-10-26T16:30:51.076Z,92.10
2017-10-26T16:33:19.459Z,92.20
2017-10-26T16:35:47.018Z,92.10
2017-10-26T16:38:14.589Z,92.20
2017-10-26T16:40:42.222Z,92.20
2017-10-26T16:43:10.572Z,92.50
2017-10-26T16:45:38.168Z,92.50
2017-10-26T16:48:05.771Z,92.70
2017-10-26T16:50:33.460Z,92.60
2017-10-26T16:53:01.127Z,93.00
2017-10-26T16:55:28.740Z,93.40
2017-10-26T16:57:56.351Z,93.30
2017-10-26T17:00:23.977Z,93.70
2017-10-26T17:02:52.350Z,92.90
2017-10-26T17:05:20.750Z,92.80
2017-10-26T17:07:48.329Z,92.80
2017-10-26T17:10:15.907Z,92.60
2017-10-26T17:12:44.319Z,92.60
2017-10-26T17:15:12.779Z,92.60
2017-10-26T17:17:41.133Z,93.10
2017-10-26T17:20:09.617Z,93.40
2017-10-26T17:22:37.254Z,93.10
2017-10-26T17:25:04.902Z,93.10
2017-10-26T17:27:32.530Z,93.20
2017-10-26T17:30:00.875Z,93.60
2017-10-26T17:32:28.480Z,93.50
2017-10-26T17:34:56.082Z,93.60
2017-10-26T17:37:23.697Z,93.70
2017-10-26T17:39:51.300Z,93.80
2017-10-26T17:42:18.905Z,93.80
2017-10-26T17:44:46.492Z,93.80
2017-10-26T17:47:14.184Z,94.00
2017-10-26T17:49:41.794Z,94.20
2017-10-26T17:52:10.168Z,94.30
2017-10-26T17:54:37.780Z,94.20
2017-10-26T17:57:05.421Z,94.10
2017-10-26T17:59:33.019Z,93.90
2017-10-26T18:02:00.665Z,93.90
2017-10-26T18:04:28.307Z,93.70
2017-10-26T18:06:55.924Z,93.70
2017-10-26T18:09:24.300Z,93.80
2017-10-26T18:11:52.634Z,93.70
2017-10-26T18:14:20.218Z,93.70
2017-10-26T18:16:47.784Z,93.80
2017-10-26T18:19:15.401Z,93.90
2017-10-26T18:21:43.101Z,93.90
2017-10-26T18:24:10.701Z,94.00
2017-10-26T18:26:38.331Z,93.90
2017-10-26T18:29:05.930Z,94.00
2017-10-26T18:31:33.534Z,94.00
2017-10-26T18:34:01.830Z,94.00
2017-10-26T18:36:29.502Z,94.10
2017-10-26T18:38:57.837Z,94.20
2017-10-26T18:41:25.472Z,94.20
2017-10-26T18:43:53.043Z,94.20
2017-10-26T18:46:20.631Z,94.40
2017-10-26T18:48:48.269Z,94.30
2017-10-26T18:51:15.881Z,94.80
2017-10-26T18:53:43.575Z,94.70
2017-10-26T18:56:11.669Z,94.70
2017-10-26T18:58:39.299Z,94.70
2017-10-26T19:01:08.000Z,94.70
2017-10-26T19:03:35.664Z,94.70
2017-10-26T19:06:03.321Z,94.30
2017-10-26T19:08:30.916Z,94.40
2017-10-26T19:10:58.597Z,94.30
2017-10-26T19:13:26.206Z,94.30
2017-10-26T19:15:53.814Z,93.90
2017-10-26T19:18:21.412Z,93.90
2017-10-26T19:20:49.078Z,93.90
2017-10-26T19:23:16.689Z,93.70
2017-10-26T19:25:44.296Z,93.70
2017-10-26T19:28:11.907Z,93.30
2017-10-26T19:30:39.545Z,93.30
2017-10-26T19:33:07.195Z,93.50
2017-10-26T19:35:34.845Z,93.00
2017-10-26T19:38:02.520Z,93.10
2017-10-26T19:40:30.142Z,93.00
2017-10-26T19:42:57.769Z,93.00
2017-10-26T19:45:25.347Z,92.80
2017-10-26T19:47:52.978Z,92.90
2017-10-26T19:50:20.575Z,92.80
2017-10-26T19:52:48.961Z,92.80
2017-10-26T19:55:17.416Z,93.10
2017-10-26T19:57:45.065Z,93.10
2017-10-26T20:00:12.657Z,93.00
2017-10-26T20:02:40.263Z,92.80
2017-10-26T20:05:07.841Z,92.60
2017-10-26T20:07:35.492Z,92.60
2017-10-26T20:10:03.085Z,92.50
2017-10-26T20:12:31.413Z,92.60
2017-10-26T20:14:59.051Z,92.60
2017-10-26T20:17:27.593Z,92.60
2017-10-26T20:19:55.209Z,92.60
2017-10-26T20:22:22.921Z,92.70
2017-10-26T20:24:50.541Z,92.60
2017-10-26T20:27:18.221Z,92.60
2017-10-26T20:29:45.902Z,92.70
2017-10-26T20:32:13.519Z,92.80
2017-10-26T20:34:41.892Z,92.90
2017-10-26T20:37:10.399Z,92.80
2017-10-26T20:39:38.247Z,92.70
2017-10-26T20:42:06.716Z,92.90
2017-10-26T20:44:35.049Z,92.90
2017-10-26T20:47:02.714Z,92.80
2017-10-26T20:49:35.898Z,92.90
2017-10-26T20:52:09.406Z,93.00
2017-10-26T20:54:42.661Z,93.10
2017-10-26T20:57:16.033Z,93.20
2017-10-26T20:59:50.012Z,93.20
2017-10-26T21:02:23.338Z,93.20
2017-10-26T21:04:57.517Z,93.30
2017-10-26T21:07:30.856Z,93.30
2017-10-26T21:09:59.264Z,93.20
2017-10-26T21:12:32.592Z,93.20
2017-10-26T21:15:00.253Z,93.20
2017-10-26T21:17:27.843Z,93.20
2017-10-26T21:19:56.196Z,93.40
2017-10-26T21:22:23.775Z,93.40
2017-10-26T21:24:51.369Z,93.50
2017-10-26T21:27:18.976Z,93.50
2017-10-26T21:29:47.382Z,93.80
2017-10-26T21:32:15.737Z,93.50
2017-10-26T21:34:43.343Z,93.50
2017-10-26T21:37:10.985Z,93.60
2017-10-26T21:39:38.573Z,93.70
2017-10-26T21:42:06.174Z,93.50
2017-10-26T21:44:33.788Z,93.40
2017-10-26T21:47:02.194Z,93.60
2017-10-26T21:49:29.793Z,94.10
2017-10-26T21:51:57.704Z,94.20
2017-10-26T21:54:26.209Z,94.00
2017-10-26T21:56:53.770Z,93.80
2017-10-26T21:59:21.358Z,93.70
2017-10-26T22:01:49.694Z,93.80
2017-10-26T22:04:17.254Z,93.80
2017-10-26T22:06:44.870Z,93.70
2017-10-26T22:09:13.294Z,93.70
2017-10-26T22:11:40.895Z,93.50
2017-10-26T22:14:09.305Z,93.40
2017-10-26T22:16:37.670Z,93.30
2017-10-26T22:19:05.284Z,93.30
2017-10-26T22:21:32.867Z,93.20
2017-10-26T22:24:00.476Z,93.40
2017-10-26T22:26:28.150Z,93.40
2017-10-26T22:28:55.736Z,93.40
2017-10-26T22:31:23.365Z,93.50
2017-10-26T22:33:50.943Z,93.60
2017-10-26T22:36:18.496Z,93.60
2017-10-26T22:38:46.198Z,93.70
2017-10-26T22:41:13.768Z,93.80
2017-10-26T22:43:41.409Z,93.90
2017-10-26T22:46:09.019Z,93.90
2017-10-26T22:48:36.600Z,94.00
2017-10-26T22:51:04.188Z,94.00
2017-10-26T22:53:31.790Z,94.10
2017-10-26T22:55:59.459Z,94.30
2017-10-26T22:58:27.072Z,94.20
2017-10-26T23:00:54.676Z,94.00
2017-10-26T23:03:23.040Z,94.20
2017-10-26T23:05:50.600Z,94.20
2017-10-26T23:08:18.222Z,94.30
2017-10-26T23:10:45.784Z,94.30
2017-10-26T23:13:13.409Z,94.30
2017-10-26T23:15:41.002Z,94.30
2017-10-26T23:18:08.595Z,94.20
2017-10-26T23:20:36.158Z,94.10
2017-10-26T23:23:03.739Z,94.00
2017-10-26T23:25:31.317Z,94.40
2017-10-26T23:27:58.894Z,94.20
2017-10-26T23:30:26.500Z,94.30
2017-10-26T23:32:54.096Z,94.20
2017-10-26T23:35:21.698Z,94.70
2017-10-26T23:37:49.302Z,94.30
2017-10-26T23:40:17.650Z,94.40
2017-10-26T23:42:45.318Z,94.40
2017-10-26T23:45:13.517Z,94.60
2017-10-26T23:47:41.139Z,94.80
2017-10-26T23:50:09.488Z,94.80
2017-10-26T23:52:37.131Z,94.90
2017-10-26T23:55:04.743Z,95.10
2017-10-26T23:57:32.329Z,95.10
2017-10-26T23:59:59.910Z,94.90
